Time;durP1;ratioP1;P1;durP2;ratioP2;P2;SDS_P1;SDS_P2;PMS_P1;PMS_P2;Temp;Humidity;BMP_temperature;BMP_pressure;BME280_temperature;BME280_humidity;BME280_pressure;Samples;Min_cycle;Max_cycle;Signal;HPM_P1;HPM_P2
2021/12/25 00:06:00;;;;;;;0.20;0.10;;;12.10;99.90;;;;;;20914428;28;20701;-69
2021/12/25 00:16:04;;;;;;;0.20;0.10;;;12.30;99.90;;;;;;20913595;28;20190;-69
2021/12/25 00:26:14;;;;;;;0.20;0.10;;;12.20;99.90;;;;;;20913616;28;20226;-69
2021/12/25 00:36:20;;;;;;;0.20;0.00;;;12.20;99.90;;;;;;20911663;28;20288;-69
2021/12/25 00:46:25;;;;;;;0.20;0.10;;;12.10;99.90;;;;;;20909497;28;20217;-68
2021/12/25 00:56:29;;;;;;;0.20;0.10;;;11.70;99.90;;;;;;20912456;28;20193;-69
2021/12/25 01:06:34;;;;;;;0.20;0.10;;;11.60;99.90;;;;;;20911216;28;20241;-69
2021/12/25 01:27:24;;;;;;;0.20;0.10;;;11.60;99.90;;;;;;20801444;28;20671;-68
2021/12/25 01:37:38;;;;;;;0.20;0.10;;;11.70;99.90;;;;;;20824894;28;20206;-68
2021/12/25 01:47:47;;;;;;;0.20;0.00;;;11.50;99.90;;;;;;20825766;28;20228;-69
2021/12/25 01:57:51;;;;;;;0.20;0.10;;;11.70;99.90;;;;;;20825201;28;20208;-69
2021/12/25 02:07:56;;;;;;;0.20;0.10;;;11.60;99.90;;;;;;20824358;28;20238;-69
2021/12/25 02:18:09;;;;;;;0.20;0.10;;;11.40;99.90;;;;;;20899705;28;20737;-69
2021/12/25 02:28:16;;;;;;;0.20;0.10;;;10.90;99.90;;;;;;20905165;28;20573;-68
2021/12/25 02:38:19;;;;;;;0.20;0.00;;;11.10;99.90;;;;;;20904945;28;20201;-69
2021/12/25 02:48:24;;;;;;;0.20;0.00;;;11.00;99.90;;;;;;20907075;28;20213;-69
2021/12/25 02:58:28;;;;;;;0.20;0.00;;;10.70;99.90;;;;;;20920427;28;20236;-69
2021/12/25 03:08:36;;;;;;;0.20;0.00;;;10.60;99.90;;;;;;20933413;22;20233;-75
2021/12/25 03:18:48;;;;;;;1.13;1.13;;;10.60;99.90;;;;;;20922232;28;20240;-75
2021/12/25 03:28:53;;;;;;;0.20;0.00;;;10.40;99.90;;;;;;20923570;28;20224;-73
2021/12/25 03:38:57;;;;;;;0.20;0.00;;;10.60;99.90;;;;;;20922605;28;20224;-73
2021/12/25 03:49:07;;;;;;;0.20;0.00;;;10.50;99.90;;;;;;20922652;28;20332;-74
2021/12/25 04:10:07;;;;;;;0.20;0.10;;;11.30;99.90;;;;;;20757145;28;20662;-84
2021/12/25 04:20:11;;;;;;;0.20;0.10;;;11.40;99.90;;;;;;20798642;28;20224;-83
2021/12/25 04:30:31;;;;;;;0.20;0.10;;;11.30;99.90;;;;;;20802211;28;20683;-81
2021/12/25 05:11:56;;;;;;;0.20;0.10;;;12.10;99.90;;;;;;20660261;28;20195;-75
2021/12/25 05:22:00;;;;;;;0.20;0.10;;;12.30;99.90;;;;;;20642568;28;20228;-76
2021/12/25 05:32:05;;;;;;;0.20;0.07;;;12.90;99.90;;;;;;20659515;28;20227;-75
2021/12/25 05:42:10;;;;;;;0.20;0.00;;;12.90;99.90;;;;;;20732563;28;20245;-75
2021/12/25 05:52:15;;;;;;;0.20;0.00;;;12.90;99.90;;;;;;20747270;28;20201;-76
2021/12/25 06:02:20;;;;;;;0.20;0.00;;;12.80;99.90;;;;;;20748040;28;20317;-76
2021/12/25 06:12:26;;;;;;;0.20;0.00;;;12.50;99.90;;;;;;20747645;28;20195;-76
2021/12/25 06:22:32;;;;;;;0.20;0.10;;;12.10;99.90;;;;;;20746923;28;20753;-76
2021/12/25 06:32:37;;;;;;;0.20;0.10;;;11.80;99.90;;;;;;20746699;28;20270;-76
2021/12/25 06:42:42;;;;;;;0.20;0.10;;;11.60;99.90;;;;;;20746213;28;20334;-76
2021/12/25 06:52:47;;;;;;;0.20;0.10;;;11.70;99.90;;;;;;20745045;28;20213;-77
2021/12/25 07:02:50;;;;;;;0.20;0.00;;;12.00;99.90;;;;;;20745000;28;20235;-76
2021/12/25 07:12:55;;;;;;;0.20;0.10;;;12.90;99.90;;;;;;20744953;28;20226;-76
2021/12/25 07:22:59;;;;;;;0.20;0.00;;;12.90;99.90;;;;;;20742663;28;20676;-76
2021/12/25 07:33:04;;;;;;;0.20;0.10;;;12.60;99.90;;;;;;20743998;28;20219;-75
2021/12/25 07:43:08;;;;;;;0.20;0.10;;;12.50;99.90;;;;;;20757245;28;20248;-75
2021/12/25 07:53:16;;;;;;;0.20;0.10;;;12.40;99.90;;;;;;20757820;28;20286;-76
2021/12/25 08:03:20;;;;;;;0.20;0.00;;;12.20;99.90;;;;;;20756358;28;20234;-78
2021/12/25 08:13:25;;;;;;;0.20;0.10;;;12.60;99.90;;;;;;20755245;28;20226;-77
2021/12/25 08:23:29;;;;;;;0.20;0.00;;;12.40;99.90;;;;;;20754685;28;20254;-77
2021/12/25 08:33:34;;;;;;;0.20;0.10;;;12.00;99.90;;;;;;20753133;28;20195;-75
2021/12/25 08:43:46;;;;;;;0.20;0.10;;;12.20;99.90;;;;;;20751331;28;20254;-75
2021/12/25 08:53:51;;;;;;;0.20;0.10;;;12.70;99.90;;;;;;20746233;28;20209;-76
2021/12/25 09:03:56;;;;;;;0.20;0.10;;;13.20;99.90;;;;;;20744352;28;20590;-76
2021/12/25 09:14:01;;;;;;;0.20;0.00;;;13.40;99.90;;;;;;20749997;28;20536;-76
2021/12/25 09:24:05;;;;;;;0.20;0.00;;;14.30;99.90;;;;;;20750043;28;20237;-77
2021/12/25 09:34:10;;;;;;;0.20;0.00;;;14.70;99.90;;;;;;20730841;28;20218;-77
2021/12/25 09:44:15;;;;;;;0.20;0.10;;;14.90;99.90;;;;;;20743046;28;20309;-77
2021/12/25 09:54:20;;;;;;;0.20;0.07;;;14.90;99.90;;;;;;20747758;28;20684;-75
2021/12/25 10:04:37;;;;;;;0.20;0.10;;;15.30;99.90;;;;;;20738998;28;20230;-78
2021/12/25 10:14:51;;;;;;;0.20;0.00;;;15.20;99.90;;;;;;20745912;28;20427;-77
2021/12/25 10:25:10;;;;;;;0.20;0.10;;;15.20;99.90;;;;;;20747062;28;20229;-80
2021/12/25 10:35:20;;;;;;;0.20;0.10;;;15.30;99.90;;;;;;20746295;28;20207;-77
2021/12/25 10:45:26;;;;;;;0.20;0.00;;;15.90;99.90;;;;;;20745603;28;20227;-78
2021/12/25 10:55:32;;;;;;;0.20;0.10;;;17.70;99.90;;;;;;20745736;28;20202;-77
2021/12/25 11:05:38;;;;;;;0.20;0.00;;;18.50;99.90;;;;;;20733621;28;20327;-76
2021/12/25 11:15:43;;;;;;;0.20;0.00;;;18.90;99.90;;;;;;20757667;28;20203;-75
2021/12/25 11:25:47;;;;;;;0.20;0.00;;;18.40;99.90;;;;;;20754383;28;20317;-78
2021/12/25 11:35:52;;;;;;;0.20;0.10;;;18.00;99.90;;;;;;20738276;28;20664;-75
2021/12/25 11:45:56;;;;;;;0.20;0.07;;;18.40;99.90;;;;;;20761415;28;20329;-75
2021/12/25 11:56:27;;;;;;;5.13;4.80;;;18.00;99.90;;;;;;20778089;28;20194;-75
2021/12/25 12:07:13;;;;;;;0.20;0.00;;;17.70;99.90;;;;;;20801311;28;20238;-74
2021/12/25 12:17:31;;;;;;;0.20;0.00;;;18.80;99.90;;;;;;20762699;28;20226;-75
2021/12/25 12:27:40;;;;;;;0.20;0.00;;;20.20;99.90;;;;;;20697636;28;20223;-74
2021/12/25 12:37:46;;;;;;;0.20;0.10;;;20.50;99.90;;;;;;20671679;28;20196;-74
2021/12/25 12:48:09;;;;;;;0.20;0.00;;;21.20;99.90;;;;;;20670002;28;20227;-71
2021/12/25 12:58:18;;;;;;;0.20;0.00;;;21.30;99.90;;;;;;20710736;28;20287;-75
2021/12/25 13:08:24;;;;;;;0.20;0.00;;;21.40;99.90;;;;;;20736186;28;20231;-79
2021/12/25 13:18:37;;;;;;;0.20;0.00;;;21.30;99.90;;;;;;20741749;28;20302;-76
2021/12/25 13:28:43;;;;;;;0.20;0.10;;;21.00;99.90;;;;;;20738698;28;20341;-73
2021/12/25 13:38:51;;;;;;;0.20;0.10;;;20.40;99.90;;;;;;20757783;28;20203;-74
2021/12/25 13:48:54;;;;;;;0.20;0.10;;;19.70;99.90;;;;;;20763646;28;20226;-77
2021/12/25 13:59:10;;;;;;;0.20;0.00;;;21.30;99.90;;;;;;20746683;28;20237;-77
2021/12/25 14:09:14;;;;;;;0.20;0.00;;;20.90;99.90;;;;;;20814005;28;20238;-81
2021/12/25 14:19:20;;;;;;;0.20;0.00;;;21.30;99.90;;;;;;20790808;28;20205;-79
2021/12/25 14:29:28;;;;;;;0.20;0.10;;;21.70;99.90;;;;;;20756986;28;20226;-81
2021/12/25 14:39:33;;;;;;;0.20;0.00;;;21.70;99.90;;;;;;20747520;28;20206;-81
2021/12/25 14:49:38;;;;;;;0.20;0.00;;;21.50;99.90;;;;;;20712797;28;20230;-78
2021/12/25 14:59:43;;;;;;;0.20;0.10;;;20.50;99.90;;;;;;20680878;28;20226;-77
2021/12/25 15:09:49;;;;;;;0.20;0.07;;;20.00;99.90;;;;;;20725818;28;20311;-80
2021/12/25 15:20:02;;;;;;;0.20;0.10;;;20.90;99.90;;;;;;20759260;28;20218;-77
2021/12/25 15:30:08;;;;;;;0.20;0.10;;;20.50;99.90;;;;;;20757319;28;20230;-77
2021/12/25 15:40:17;;;;;;;0.20;0.10;;;20.00;99.90;;;;;;20754214;28;20205;-73
2021/12/25 15:50:26;;;;;;;0.20;0.00;;;19.40;99.90;;;;;;20755191;28;20253;-75
2021/12/25 16:00:33;;;;;;;0.20;0.00;;;18.60;99.90;;;;;;20753703;28;20314;-79
2021/12/25 16:10:37;;;;;;;0.20;0.10;;;17.70;99.90;;;;;;20753960;28;20692;-76
2021/12/25 16:20:43;;;;;;;0.20;0.10;;;17.20;99.90;;;;;;20741574;28;20199;-75
2021/12/25 16:30:51;;;;;;;0.20;0.10;;;16.80;99.90;;;;;;20750483;28;20684;-75
2021/12/25 16:40:56;;;;;;;0.20;0.00;;;16.80;99.90;;;;;;20751157;28;20191;-76
2021/12/25 16:51:01;;;;;;;0.20;0.10;;;16.60;99.90;;;;;;20749041;28;20223;-74
2021/12/25 17:01:06;;;;;;;0.20;0.03;;;16.40;99.90;;;;;;20743168;28;20685;-75
2021/12/25 17:11:11;;;;;;;0.20;0.10;;;16.30;99.90;;;;;;20742125;28;20261;-74
2021/12/25 17:21:17;;;;;;;0.20;0.00;;;16.10;99.90;;;;;;20740558;28;20747;-74
2021/12/25 17:31:23;;;;;;;0.20;0.10;;;16.00;99.90;;;;;;20731692;28;20231;-75
2021/12/25 17:41:34;;;;;;;0.20;0.10;;;16.00;99.90;;;;;;20731271;28;20199;-74
2021/12/25 17:51:38;;;;;;;0.20;0.10;;;15.90;99.90;;;;;;20676505;28;20272;-75
2021/12/25 18:01:43;;;;;;;0.20;0.00;;;15.70;99.90;;;;;;20664297;28;20243;-77
2021/12/25 18:11:47;;;;;;;0.20;0.10;;;15.60;99.90;;;;;;20694091;28;20322;-76
2021/12/25 18:21:52;;;;;;;0.20;0.00;;;15.50;99.90;;;;;;20732042;28;20231;-75
2021/12/25 18:31:56;;;;;;;0.20;0.00;;;15.30;99.90;;;;;;20662390;28;20632;-73
2021/12/25 18:42:01;;;;;;;0.20;0.00;;;15.40;99.90;;;;;;20659904;28;20297;-74
2021/12/25 18:52:06;;;;;;;0.20;0.00;;;15.40;99.90;;;;;;20673775;28;20281;-74
2021/12/25 19:02:13;;;;;;;0.77;0.77;;;15.30;99.90;;;;;;20734517;28;20231;-74
2021/12/25 19:12:17;;;;;;;0.20;0.10;;;15.30;99.90;;;;;;20723316;28;20638;-75
2021/12/25 19:22:22;;;;;;;0.20;0.20;;;15.30;99.90;;;;;;20740340;28;20198;-74
2021/12/25 19:32:25;;;;;;;0.20;0.00;;;15.40;99.90;;;;;;20799727;28;20225;-73
2021/12/25 19:42:31;;;;;;;0.20;0.00;;;15.30;99.90;;;;;;20757317;28;20187;-73
2021/12/25 19:52:34;;;;;;;0.20;0.10;;;15.30;99.90;;;;;;20770552;28;20234;-75
2021/12/25 20:02:40;;;;;;;0.20;0.10;;;15.20;99.90;;;;;;20751572;28;20655;-77
2021/12/25 20:12:44;;;;;;;0.20;0.00;;;15.20;99.90;;;;;;20750045;28;20234;-76
2021/12/25 20:22:49;;;;;;;0.20;0.00;;;15.20;99.90;;;;;;20750263;28;20214;-74
2021/12/25 20:32:54;;;;;;;0.20;0.00;;;15.10;99.90;;;;;;20750372;28;21003;-74
2021/12/25 20:43:01;;;;;;;0.20;0.10;;;15.10;99.90;;;;;;20810836;28;20516;-74
2021/12/25 20:53:06;;;;;;;0.20;0.10;;;15.00;99.90;;;;;;20760858;28;20228;-77
2021/12/25 21:03:11;;;;;;;0.20;0.00;;;14.80;99.90;;;;;;20747186;28;20722;-77
2021/12/25 21:13:15;;;;;;;0.30;0.30;;;14.30;99.90;;;;;;20724467;28;20246;-75
2021/12/25 21:23:21;;;;;;;0.20;0.10;;;13.80;99.90;;;;;;20766320;28;20203;-75
2021/12/25 21:33:25;;;;;;;0.67;0.67;;;13.40;99.90;;;;;;20737669;28;20606;-76
2021/12/25 21:43:30;;;;;;;0.20;0.10;;;12.90;99.90;;;;;;20744394;28;20207;-75
2021/12/25 21:53:34;;;;;;;0.20;0.10;;;12.70;99.90;;;;;;20739982;28;20235;-74
2021/12/25 22:03:39;;;;;;;0.20;0.10;;;12.40;99.90;;;;;;20743212;28;20695;-74
2021/12/25 22:13:44;;;;;;;0.20;0.10;;;12.40;99.90;;;;;;20734914;28;20631;-74
2021/12/25 22:23:52;;;;;;;0.20;0.20;;;12.10;99.90;;;;;;20711023;28;20199;-74
2021/12/25 22:33:57;;;;;;;0.20;0.10;;;12.00;99.90;;;;;;20741311;28;20313;-74
2021/12/25 22:44:03;;;;;;;0.20;0.20;;;11.80;99.90;;;;;;20740716;28;20940;-74
2021/12/25 22:54:06;;;;;;;0.20;0.10;;;11.60;99.90;;;;;;20740178;28;20765;-75
2021/12/25 23:04:12;;;;;;;0.20;0.10;;;11.60;99.90;;;;;;20740137;28;20222;-76
2021/12/25 23:14:17;;;;;;;0.20;0.10;;;11.10;99.90;;;;;;20759315;28;20230;-75
2021/12/25 23:24:22;;;;;;;0.20;0.10;;;11.10;99.90;;;;;;20759028;28;20660;-76
2021/12/25 23:34:25;;;;;;;0.20;0.10;;;10.60;99.90;;;;;;20756075;28;20237;-77
2021/12/25 23:44:31;;;;;;;0.20;0.10;;;10.10;99.90;;;;;;20758765;28;20202;-78
2021/12/25 23:54:34;;;;;;;0.23;0.17;;;9.90;99.90;;;;;;20738270;28;20269;-78
